Time;durP1;ratioP1;P1;durP2;ratioP2;P2;SDS_P1;SDS_P2;PMS_P1;PMS_P2;Temp;Humidity;BMP_temperature;BMP_pressure;BME280_temperature;BME280_humidity;BME280_pressure;Samples;Min_cycle;Max_cycle;Signal;HPM_P1;HPM_P2
2021/11/25 00:02:25;;;;;;;;;;;;;;;21.73;42.27;101331.03;7286659;19;153313;-53
2021/11/25 00:04:52;;;;;;;;;;;;;;;21.69;42.57;101338.41;7288767;19;152092;-53
2021/11/25 00:07:18;;;;;;;;;;;;;;;21.68;42.44;101344.34;7288411;19;152245;-51
2021/11/25 00:09:47;;;;;;;;;;;;;;;21.66;42.52;101343.81;7295160;19;153966;-52
2021/11/25 00:12:14;;;;;;;;;;;;;;;21.62;42.56;101346.41;7287461;19;152664;-51
2021/11/25 00:14:41;;;;;;;;;;;;;;;21.59;42.92;101347.03;7287792;19;153943;-51
2021/11/25 00:17:07;;;;;;;;;;;;;;;21.57;42.78;101342.84;7287543;19;152000;-52
2021/11/25 00:19:34;;;;;;;;;;;;;;;21.55;43.05;101336.69;7288746;19;153871;-52
2021/11/25 00:22:01;;;;;;;;;;;;;;;21.51;43.00;101338.44;7285375;19;154020;-52
2021/11/25 00:24:28;;;;;;;;;;;;;;;21.49;43.05;101337.91;7288622;19;151767;-51
2021/11/25 00:26:55;;;;;;;;;;;;;;;21.45;43.04;101332.06;7287398;19;152279;-51
2021/11/25 00:29:21;;;;;;;;;;;;;;;21.44;43.24;101341.63;7286293;19;154176;-52
2021/11/25 00:31:48;;;;;;;;;;;;;;;21.42;43.05;101334.66;7293500;19;152204;-52
2021/11/25 00:34:15;;;;;;;;;;;;;;;21.39;43.42;101319.25;7286977;19;154370;-52
2021/11/25 00:36:42;;;;;;;;;;;;;;;21.36;43.33;101316.19;7288355;19;151555;-52
2021/11/25 00:39:09;;;;;;;;;;;;;;;21.33;43.31;101314.00;7288180;19;153225;-51
2021/11/25 00:41:35;;;;;;;;;;;;;;;21.29;43.39;101309.00;7287750;19;153564;-51
2021/11/25 00:44:02;;;;;;;;;;;;;;;21.27;43.77;101316.88;7285664;19;151731;-51
2021/11/25 00:46:29;;;;;;;;;;;;;;;21.24;43.37;101305.41;7285848;19;153868;-52
2021/11/25 00:48:56;;;;;;;;;;;;;;;21.21;43.64;101312.47;7287349;19;154507;-52
2021/11/25 00:51:22;;;;;;;;;;;;;;;21.19;43.94;101308.31;7288680;19;151719;-51
2021/11/25 00:53:49;;;;;;;;;;;;;;;21.15;43.92;101310.06;7294958;19;152706;-51
2021/11/25 00:56:16;;;;;;;;;;;;;;;21.10;43.88;101298.84;7287882;19;152054;-51
2021/11/25 00:58:43;;;;;;;;;;;;;;;21.08;43.93;101304.78;7287547;19;153102;-50
2021/11/25 01:01:09;;;;;;;;;;;;;;;21.05;43.97;101311.00;7286602;19;154035;-51
2021/11/25 01:03:36;;;;;;;;;;;;;;;21.04;43.87;101314.09;7285249;19;151973;-51
2021/11/25 01:06:03;;;;;;;;;;;;;;;21.01;43.88;101304.31;7287799;19;153279;-51
2021/11/25 01:08:30;;;;;;;;;;;;;;;20.97;44.24;101305.22;7285239;19;153938;-51
2021/11/25 01:10:57;;;;;;;;;;;;;;;20.92;44.09;101300.53;7285677;19;151709;-52
2021/11/25 01:13:24;;;;;;;;;;;;;;;20.90;44.50;101297.16;7287369;19;152594;-51
2021/11/25 01:15:51;;;;;;;;;;;;;;;20.86;44.30;101293.28;7293398;19;153836;-52
2021/11/25 01:18:18;;;;;;;;;;;;;;;20.83;44.76;101280.72;7287710;19;152934;-51
2021/11/25 01:20:46;;;;;;;;;;;;;;;20.81;44.44;101274.53;7286508;19;153324;-52
2021/11/25 01:23:19;;;;;;;;;;;;;;;20.77;44.51;101278.25;7286072;19;152104;-52
2021/11/25 01:25:48;;;;;;;;;;;;;;;20.74;44.90;101276.06;7286295;19;151980;-51
2021/11/25 01:28:14;;;;;;;;;;;;;;;20.72;44.61;101279.16;7286115;19;154222;-51
2021/11/25 01:30:42;;;;;;;;;;;;;;;20.69;44.91;101285.41;7286475;19;151709;-51
2021/11/25 01:33:09;;;;;;;;;;;;;;;20.65;44.98;101275.06;7287004;19;153301;-51
2021/11/25 01:35:37;;;;;;;;;;;;;;;20.63;45.02;101280.97;7285456;19;152673;-51
2021/11/25 01:38:06;;;;;;;;;;;;;;;20.63;44.87;101278.16;7294052;19;152083;-51
2021/11/25 01:40:33;;;;;;;;;;;;;;;20.60;45.12;101283.56;7285471;19;153924;-52
2021/11/25 01:43:00;;;;;;;;;;;;;;;20.57;45.24;101273.78;7285393;19;153264;-52
2021/11/25 01:45:27;;;;;;;;;;;;;;;20.56;45.09;101279.69;7286481;19;152009;-51
2021/11/25 01:47:54;;;;;;;;;;;;;;;20.53;45.16;101291.53;7284938;19;153274;-52
2021/11/25 01:50:22;;;;;;;;;;;;;;;20.50;45.19;101286.47;7284825;19;151862;-52
2021/11/25 01:52:49;;;;;;;;;;;;;;;20.51;45.58;101290.97;7285705;19;152692;-52
2021/11/25 01:55:17;;;;;;;;;;;;;;;20.47;45.52;101292.72;7284690;19;153867;-51
2021/11/25 01:57:44;;;;;;;;;;;;;;;20.46;45.17;101291.03;7283263;19;152094;-52
2021/11/25 02:00:20;;;;;;;;;;;;;;;20.44;45.52;101301.75;7292830;19;152768;-52
2021/11/25 02:02:47;;;;;;;;;;;;;;;20.40;45.52;101296.69;7281087;19;152926;-52
2021/11/25 02:05:14;;;;;;;;;;;;;;;20.39;45.44;101289.44;7286023;19;152995;-52
2021/11/25 02:07:58;;;;;;;;;;;;;;;20.36;45.50;101286.38;7281853;19;152139;-52
2021/11/25 02:10:25;;;;;;;;;;;;;;;20.35;45.53;101293.16;7285677;19;152248;-52
2021/11/25 02:12:51;;;;;;;;;;;;;;;20.31;45.78;101292.88;7285094;19;153991;-52
2021/11/25 02:15:18;;;;;;;;;;;;;;;20.30;45.74;101296.00;7284843;19;154405;-52
2021/11/25 02:17:45;;;;;;;;;;;;;;;20.28;45.62;101299.06;7284297;19;152173;-52
2021/11/25 02:20:13;;;;;;;;;;;;;;;20.26;46.10;101283.69;7291365;19;153303;-52
2021/11/25 02:22:40;;;;;;;;;;;;;;;20.23;45.75;101296.31;7284949;19;151825;-52
2021/11/25 02:25:08;;;;;;;;;;;;;;;20.23;46.20;101295.47;7281572;19;153152;-51
2021/11/25 02:27:34;;;;;;;;;;;;;;;20.20;45.99;101298.88;7283455;19;154030;-52
2021/11/25 02:30:02;;;;;;;;;;;;;;;20.18;45.95;101293.56;7284122;19;152591;-51
2021/11/25 02:32:36;;;;;;;;;;;;;;;20.15;46.39;101294.16;7284453;19;152493;-52
2021/11/25 02:35:05;;;;;;;;;;;;;;;20.16;46.01;101295.00;7283378;19;154137;-52
2021/11/25 02:37:32;;;;;;;;;;;;;;;20.14;46.12;101295.28;7284340;19;152261;-51
2021/11/25 02:39:58;;;;;;;;;;;;;;;20.14;46.36;101294.47;7285200;19;153391;-51
2021/11/25 02:42:25;;;;;;;;;;;;;;;20.13;46.72;101295.59;7290855;19;153152;-51
2021/11/25 02:44:52;;;;;;;;;;;;;;;20.14;46.27;101294.47;7283351;19;152593;-51
2021/11/25 02:47:18;;;;;;;;;;;;;;;20.11;46.28;101292.25;7280093;19;153671;-51
2021/11/25 02:49:45;;;;;;;;;;;;;;;20.08;46.77;101285.25;7286339;19;151573;-52
2021/11/25 02:52:12;;;;;;;;;;;;;;;20.06;46.42;101286.69;7283065;19;152239;-51
2021/11/25 02:54:41;;;;;;;;;;;;;;;20.01;46.73;101281.13;7281312;19;153439;-52
2021/11/25 02:57:08;;;;;;;;;;;;;;;20.03;46.89;101271.31;7290242;19;152250;-51
2021/11/25 02:59:34;;;;;;;;;;;;;;;20.02;46.95;101266.00;7290999;19;152742;-51
2021/11/25 03:02:01;;;;;;;;;;;;;;;19.99;46.91;101271.03;7287816;19;152554;-51
2021/11/25 03:07:30;;;;;;;;;;;;;;;19.93;47.17;101279.81;7287613;19;153530;-51
2021/11/25 03:09:56;;;;;;;;;;;;;;;19.91;47.14;101270.88;7288459;19;151858;-51
2021/11/25 03:12:23;;;;;;;;;;;;;;;19.90;46.89;101272.00;7290985;19;152667;-51
2021/11/25 03:14:50;;;;;;;;;;;;;;;19.90;47.17;101272.00;7289814;19;153514;-51
2021/11/25 03:17:16;;;;;;;;;;;;;;;19.86;47.28;101276.53;7290157;19;151839;-51
2021/11/25 03:19:43;;;;;;;;;;;;;;;19.84;46.84;101274.03;7290803;19;151903;-51
2021/11/25 03:22:10;;;;;;;;;;;;;;;19.82;46.98;101276.28;7289405;19;153218;-51
2021/11/25 03:24:37;;;;;;;;;;;;;;;19.80;47.05;101267.34;7286519;19;151791;-51
2021/11/25 03:27:04;;;;;;;;;;;;;;;19.79;47.22;101260.06;7295858;19;152681;-51
2021/11/25 03:29:31;;;;;;;;;;;;;;;19.76;47.38;101260.63;7291090;19;152222;-51
2021/11/25 03:31:58;;;;;;;;;;;;;;;19.74;47.17;101262.91;7290501;19;153354;-51
2021/11/25 03:34:25;;;;;;;;;;;;;;;19.72;47.37;101273.56;7288203;19;152849;-51
2021/11/25 03:36:51;;;;;;;;;;;;;;;19.71;47.01;101265.47;7290016;19;151970;-51
2021/11/25 03:39:18;;;;;;;;;;;;;;;19.69;47.60;101268.56;7289830;19;153210;-51
2021/11/25 03:41:45;;;;;;;;;;;;;;;19.67;47.37;101278.41;7288746;19;154085;-51
2021/11/25 03:44:11;;;;;;;;;;;;;;;19.66;47.27;101277.56;7288888;19;152077;-51
2021/11/25 03:46:38;;;;;;;;;;;;;;;19.64;47.47;101279.81;7289787;19;152099;-52
2021/11/25 03:49:05;;;;;;;;;;;;;;;19.62;47.55;101284.91;7295121;19;154127;-51
2021/11/25 03:51:32;;;;;;;;;;;;;;;19.59;47.56;101274.25;7289762;19;152553;-51
2021/11/25 03:54:01;;;;;;;;;;;;;;;19.58;47.76;101274.56;7288595;19;153628;-52
2021/11/25 03:56:28;;;;;;;;;;;;;;;19.57;47.83;101276.53;7288879;19;152944;-52
2021/11/25 03:58:55;;;;;;;;;;;;;;;19.59;47.63;101279.03;7289707;19;152583;-52
2021/11/25 04:01:23;;;;;;;;;;;;;;;19.54;47.99;101269.53;7286740;19;153928;-52
2021/11/25 04:03:50;;;;;;;;;;;;;;;19.55;47.86;101270.38;7286674;19;151733;-52
2021/11/25 04:06:17;;;;;;;;;;;;;;;19.52;47.92;101277.41;7288651;19;153543;-51
2021/11/25 04:08:43;;;;;;;;;;;;;;;19.49;48.02;101277.16;7285492;19;152253;-52
2021/11/25 04:11:10;;;;;;;;;;;;;;;19.48;47.87;101267.94;7297367;19;151704;-51
2021/11/25 04:13:37;;;;;;;;;;;;;;;19.46;47.90;101284.19;7286204;19;153924;-52
2021/11/25 04:16:04;;;;;;;;;;;;;;;19.44;47.69;101289.22;7289445;19;151916;-51
2021/11/25 04:18:31;;;;;;;;;;;;;;;19.42;47.65;101288.69;7289797;19;153055;-51
2021/11/25 04:20:57;;;;;;;;;;;;;;;19.44;47.70;101291.22;7287577;19;152906;-51
2021/11/25 04:23:24;;;;;;;;;;;;;;;19.42;48.04;101299.03;7288449;19;151517;-51
2021/11/25 04:25:51;;;;;;;;;;;;;;;19.41;47.62;101300.16;7286782;19;152715;-51
2021/11/25 04:28:18;;;;;;;;;;;;;;;19.38;47.97;101306.38;7287678;19;153951;-51
2021/11/25 04:35:57;;;;;;;;;;;;;;;19.35;47.97;101298.56;7288373;19;152074;-51
2021/11/25 04:38:24;;;;;;;;;;;;;;;19.33;47.77;101298.00;7288494;19;152874;-51
2021/11/25 04:40:54;;;;;;;;;;;;;;;19.31;48.17;101292.66;7285474;19;153390;-51
2021/11/25 04:43:22;;;;;;;;;;;;;;;19.30;47.88;101292.97;7287531;19;152121;-51
2021/11/25 04:45:49;;;;;;;;;;;;;;;19.26;47.90;101292.72;7285642;19;152447;-51
2021/11/25 04:48:18;;;;;;;;;;;;;;;19.27;47.82;101299.16;7284741;19;153324;-51
2021/11/25 04:50:45;;;;;;;;;;;;;;;19.24;48.15;101300.59;7288262;19;151873;-51
2021/11/25 04:53:13;;;;;;;;;;;;;;;19.22;48.26;101294.41;7294022;19;153422;-51
2021/11/25 04:55:41;;;;;;;;;;;;;;;19.21;48.06;101295.56;7287623;19;151967;-51
2021/11/25 04:58:08;;;;;;;;;;;;;;;19.20;48.15;101298.66;7287825;19;153502;-51
2021/11/25 05:00:35;;;;;;;;;;;;;;;19.18;47.73;101293.34;7286572;19;153253;-51
2021/11/25 05:03:02;;;;;;;;;;;;;;;19.16;47.88;101284.41;7285650;19;153594;-51
2021/11/25 05:05:29;;;;;;;;;;;;;;;19.15;48.08;101276.28;7285884;19;152975;-51
2021/11/25 05:07:56;;;;;;;;;;;;;;;19.15;47.90;101284.69;7286974;19;153262;-51
2021/11/25 05:10:23;;;;;;;;;;;;;;;19.20;47.77;101304.25;7287085;19;151878;-51
2021/11/25 05:12:49;;;;;;;;;;;;;;;19.24;47.82;101297.78;7286583;19;152672;-51
2021/11/25 05:15:16;;;;;;;;;;;;;;;19.29;47.90;101294.09;7293780;19;153433;-51
2021/11/25 05:17:43;;;;;;;;;;;;;;;19.34;48.04;101300.50;7286510;19;152744;-51
2021/11/25 05:20:11;;;;;;;;;;;;;;;19.40;48.70;101302.13;7286015;19;153517;-51
2021/11/25 05:22:38;;;;;;;;;;;;;;;19.46;48.82;101302.97;7287056;19;151807;-51
2021/11/25 05:25:06;;;;;;;;;;;;;;;19.51;48.74;101297.31;7285782;19;153742;-51
2021/11/25 05:27:33;;;;;;;;;;;;;;;19.57;49.02;101298.97;7286881;19;153987;-51
2021/11/25 05:29:59;;;;;;;;;;;;;;;19.62;49.23;101298.91;7287299;19;151848;-51
2021/11/25 05:32:26;;;;;;;;;;;;;;;19.70;49.14;101303.03;7286693;19;152994;-51
2021/11/25 05:34:52;;;;;;;;;;;;;;;19.78;48.89;101305.19;7285795;19;154243;-51
2021/11/25 05:37:19;;;;;;;;;;;;;;;19.85;48.82;101305.72;7294169;19;151750;-51
2021/11/25 05:39:46;;;;;;;;;;;;;;;19.91;48.65;101310.97;7284454;19;152353;-51
2021/11/25 05:42:13;;;;;;;;;;;;;;;19.99;48.97;101313.13;7286786;19;152094;-51
2021/11/25 05:44:42;;;;;;;;;;;;;;;20.06;48.72;101318.41;7285616;19;152699;-51
2021/11/25 05:47:08;;;;;;;;;;;;;;;20.14;48.59;101308.47;7284960;19;154395;-51
2021/11/25 05:49:35;;;;;;;;;;;;;;;20.20;48.51;101307.31;7286606;19;151988;-51
2021/11/25 05:52:02;;;;;;;;;;;;;;;20.29;48.40;101313.94;7286560;19;151779;-51
2021/11/25 05:54:29;;;;;;;;;;;;;;;20.34;48.21;101317.56;7284943;19;152779;-51
2021/11/25 05:56:55;;;;;;;;;;;;;;;20.41;47.81;101315.22;7286560;19;152288;-51
2021/11/25 05:59:22;;;;;;;;;;;;;;;20.47;47.61;101313.19;7292523;19;153371;-51
2021/11/25 06:01:49;;;;;;;;;;;;;;;20.55;47.43;101314.50;7285289;19;151704;-51
2021/11/25 06:04:16;;;;;;;;;;;;;;;20.60;47.05;101320.88;7285959;19;153685;-51
2021/11/25 06:06:43;;;;;;;;;;;;;;;20.68;47.04;101320.22;7285393;19;153269;-51
2021/11/25 06:09:09;;;;;;;;;;;;;;;20.73;46.65;101322.97;7285249;19;152015;-51
2021/11/25 06:11:36;;;;;;;;;;;;;;;20.78;46.95;101319.25;7286761;19;152062;-51
2021/11/25 06:14:03;;;;;;;;;;;;;;;20.83;46.64;101333.22;7284498;19;153919;-52
2021/11/25 06:16:29;;;;;;;;;;;;;;;20.89;46.51;101340.47;7285500;19;151652;-52
2021/11/25 06:18:56;;;;;;;;;;;;;;;20.95;46.59;101329.97;7286165;19;152804;-51
2021/11/25 06:21:23;;;;;;;;;;;;;;;21.00;46.71;101329.91;7291683;19;152090;-51
2021/11/25 06:23:49;;;;;;;;;;;;;;;21.03;46.89;101330.13;7282777;19;153856;-51
2021/11/25 06:26:16;;;;;;;;;;;;;;;21.07;46.39;101333.19;7281419;19;153456;-51
2021/11/25 06:28:43;;;;;;;;;;;;;;;21.10;46.24;101324.97;7284635;19;152762;-51
2021/11/25 06:31:09;;;;;;;;;;;;;;;21.16;46.03;101334.22;7283044;19;151654;-51
2021/11/25 06:33:36;;;;;;;;;;;;;;;21.20;46.44;101332.47;7283896;19;154050;-52
2021/11/25 06:36:03;;;;;;;;;;;;;;;21.24;45.85;101328.75;7285562;19;152237;-52
2021/11/25 06:38:30;;;;;;;;;;;;;;;21.29;45.62;101327.81;7285123;19;152709;-52
2021/11/25 06:40:56;;;;;;;;;;;;;;;21.32;46.01;101321.59;7291035;19;153374;-51
2021/11/25 06:43:24;;;;;;;;;;;;;;;21.37;45.66;101324.31;7284663;19;153334;-52
2021/11/25 06:45:51;;;;;;;;;;;;;;;21.42;45.76;101335.50;7281729;19;152730;-51
2021/11/25 06:48:18;;;;;;;;;;;;;;;21.45;45.42;101334.03;7283028;19;152887;-52
2021/11/25 06:50:44;;;;;;;;;;;;;;;21.49;45.73;101332.28;7284943;19;153792;-52
2021/11/25 06:53:11;;;;;;;;;;;;;;;21.51;45.19;101339.28;7281136;19;154707;-51
2021/11/25 06:55:38;;;;;;;;;;;;;;;21.56;45.21;101346.81;7284200;19;152238;-51
2021/11/25 06:58:05;;;;;;;;;;;;;;;21.60;45.35;101353.47;7284284;19;152648;-51
2021/11/25 07:00:32;;;;;;;;;;;;;;;21.63;45.36;101350.03;7283016;19;153252;-52
2021/11/25 07:02:59;;;;;;;;;;;;;;;21.67;45.13;101339.84;7289925;19;151968;-51
2021/11/25 07:05:26;;;;;;;;;;;;;;;21.69;45.03;101341.22;7281827;19;153959;-51
2021/11/25 07:07:53;;;;;;;;;;;;;;;21.72;45.15;101339.78;7283053;19;152009;-52
2021/11/25 07:10:20;;;;;;;;;;;;;;;21.76;44.95;101343.63;7284368;19;152517;-52
2021/11/25 07:12:47;;;;;;;;;;;;;;;21.80;45.11;101355.97;7282730;19;153916;-52
2021/11/25 07:15:15;;;;;;;;;;;;;;;21.84;45.38;101370.25;7283172;19;151804;-52
2021/11/25 07:17:41;;;;;;;;;;;;;;;21.88;45.49;101368.50;7284421;19;152617;-52
2021/11/25 07:20:09;;;;;;;;;;;;;;;21.92;44.42;101364.75;7282994;19;153272;-52
2021/11/25 07:22:38;;;;;;;;;;;;;;;21.96;44.40;101365.00;7283081;19;151724;-52
2021/11/25 07:25:06;;;;;;;;;;;;;;;21.98;44.31;101372.00;7288640;19;152021;-51
2021/11/25 07:27:33;;;;;;;;;;;;;;;22.01;43.91;101371.38;7281357;19;151960;-52
2021/11/25 07:29:59;;;;;;;;;;;;;;;22.03;44.11;101365.44;7283736;19;152748;-52
2021/11/25 07:32:26;;;;;;;;;;;;;;;22.05;43.61;101363.16;7281080;19;153817;-52
2021/11/25 07:34:53;;;;;;;;;;;;;;;22.08;44.03;101362.53;7282249;19;151984;-51
2021/11/25 07:37:20;;;;;;;;;;;;;;;21.97;39.10;101375.13;7283388;19;152445;-52
2021/11/25 07:39:47;;;;;;;;;;;;;;;21.52;33.89;101371.88;7281871;19;154033;-52
2021/11/25 07:42:13;;;;;;;;;;;;;;;21.44;35.29;101380.97;7287160;19;152079;-52
2021/11/25 07:44:40;;;;;;;;;;;;;;;21.58;36.79;101379.09;7288742;19;153540;-52
2021/11/25 07:47:07;;;;;;;;;;;;;;;21.42;37.22;101382.44;7294490;19;154096;-52
2021/11/25 07:49:37;;;;;;;;;;;;;;;21.54;37.57;101388.44;7289670;19;151867;-52
2021/11/25 07:52:07;;;;;;;;;;;;;;;21.60;37.97;101385.25;7289100;19;153279;-52
2021/11/25 07:54:34;;;;;;;;;;;;;;;21.63;38.25;101392.22;7290136;19;151666;-52
2021/11/25 07:57:01;;;;;;;;;;;;;;;21.67;38.55;101410.16;7288290;19;153896;-52
2021/11/25 07:59:28;;;;;;;;;;;;;;;21.70;38.33;101401.97;7288157;19;152356;-52
2021/11/25 08:01:56;;;;;;;;;;;;;;;21.71;38.81;101403.63;7287872;19;151950;-52
2021/11/25 08:04:24;;;;;;;;;;;;;;;21.73;38.75;101418.22;7288049;19;153714;-52
2021/11/25 08:06:51;;;;;;;;;;;;;;;21.76;38.64;101430.81;7286381;19;153300;-52
2021/11/25 08:09:18;;;;;;;;;;;;;;;21.77;38.73;101437.28;7297243;19;151477;-52
2021/11/25 08:11:44;;;;;;;;;;;;;;;21.77;38.66;101432.50;7288322;19;153272;-51
2021/11/25 08:14:11;;;;;;;;;;;;;;;21.78;38.51;101424.91;7289228;19;151484;-52
2021/11/25 08:16:38;;;;;;;;;;;;;;;21.77;38.70;101431.66;7289093;19;152864;-52
2021/11/25 08:19:06;;;;;;;;;;;;;;;21.72;39.02;101436.22;7287719;19;153788;-52
2021/11/25 08:21:35;;;;;;;;;;;;;;;21.82;38.44;101435.25;7289116;19;152629;-52
2021/11/25 08:24:02;;;;;;;;;;;;;;;21.85;38.56;101425.38;7288859;19;153029;-52
2021/11/25 08:26:29;;;;;;;;;;;;;;;21.84;38.92;101432.13;7283955;19;153289;-52
2021/11/25 08:28:55;;;;;;;;;;;;;;;21.74;38.98;101428.34;7296185;19;151890;-51
2021/11/25 08:31:22;;;;;;;;;;;;;;;21.70;38.40;101434.88;7287337;19;152982;-51
2021/11/25 08:33:49;;;;;;;;;;;;;;;21.70;38.71;101449.78;7288904;19;151964;-52
2021/11/25 08:36:17;;;;;;;;;;;;;;;21.66;38.57;101445.91;7288756;19;153948;-51
2021/11/25 08:38:44;;;;;;;;;;;;;;;21.62;38.01;101450.44;7287200;19;153263;-51
2021/11/25 08:41:22;;;;;;;;;;;;;;;21.60;38.13;101463.16;7268501;19;152662;-52
2021/11/25 08:43:53;;;;;;;;;;;;;;;21.58;38.15;101460.63;7277145;19;152483;-52
2021/11/25 08:46:20;;;;;;;;;;;;;;;21.54;37.89;101462.38;7284277;19;154485;-52
2021/11/25 08:48:47;;;;;;;;;;;;;;;21.53;38.03;101462.69;7285451;19;152625;-52
2021/11/25 08:51:14;;;;;;;;;;;;;;;21.48;38.05;101468.41;7293845;19;153459;-52
2021/11/25 08:53:40;;;;;;;;;;;;;;;21.45;37.94;101467.00;7283956;19;151849;-51
2021/11/25 08:56:09;;;;;;;;;;;;;;;21.42;37.96;101466.78;7286569;19;153898;-52
2021/11/25 08:58:37;;;;;;;;;;;;;;;21.40;37.67;101464.25;7284277;19;152484;-52
2021/11/25 09:01:08;;;;;;;;;;;;;;;21.37;37.51;101467.69;7285180;19;152450;-52
2021/11/25 09:03:35;;;;;;;;;;;;;;;21.34;37.86;101473.91;7284207;19;153739;-52
2021/11/25 09:06:02;;;;;;;;;;;;;;;21.32;37.58;101470.56;7284561;19;155482;-53
2021/11/25 09:08:29;;;;;;;;;;;;;;;21.32;37.80;101470.56;7286380;19;151969;-52
2021/11/25 09:10:56;;;;;;;;;;;;;;;21.33;38.18;101471.41;7287015;19;153423;-52
2021/11/25 09:13:23;;;;;;;;;;;;;;;21.39;38.29;101473.00;7290742;19;152249;-52
2021/11/25 09:15:50;;;;;;;;;;;;;;;21.41;38.05;101473.53;7285385;19;152787;-52
2021/11/25 09:18:17;;;;;;;;;;;;;;;21.44;38.13;101481.38;7281906;19;154652;-52
2021/11/25 09:20:44;;;;;;;;;;;;;;;21.46;37.95;101482.75;7285236;19;152289;-52
2021/11/25 09:23:13;;;;;;;;;;;;;;;21.48;37.83;101488.91;7284848;19;152924;-52
2021/11/25 09:25:44;;;;;;;;;;;;;;;21.49;37.85;101503.78;7284824;19;154491;-53
2021/11/25 09:28:12;;;;;;;;;;;;;;;21.50;37.93;101489.44;7286732;19;152087;-52
2021/11/25 09:30:39;;;;;;;;;;;;;;;21.50;37.89;101492.25;7286184;19;153416;-52
2021/11/25 09:33:06;;;;;;;;;;;;;;;21.51;37.99;101487.47;7283017;19;154057;-52
2021/11/25 09:35:33;;;;;;;;;;;;;;;21.50;37.73;101492.25;7291602;19;152704;-52
2021/11/25 09:38:00;;;;;;;;;;;;;;;21.49;37.86;101498.16;7284465;19;153332;-52
2021/11/25 09:40:28;;;;;;;;;;;;;;;21.48;37.70;101488.91;7284639;19;152387;-52
2021/11/25 09:42:56;;;;;;;;;;;;;;;21.48;37.87;101493.69;7280871;19;153467;-52
2021/11/25 09:45:23;;;;;;;;;;;;;;;21.47;37.56;101487.22;7282640;19;153180;-52
2021/11/25 09:47:51;;;;;;;;;;;;;;;21.47;38.05;101501.28;7281826;19;151901;-52
2021/11/25 09:50:19;;;;;;;;;;;;;;;21.45;37.94;101503.56;7285071;19;152882;-52
2021/11/25 09:52:47;;;;;;;;;;;;;;;21.44;37.64;101501.88;7283256;19;153932;-54
2021/11/25 09:55:14;;;;;;;;;;;;;;;21.43;37.49;101511.47;7284090;19;152067;-52
2021/11/25 09:57:41;;;;;;;;;;;;;;;21.41;37.90;101505.28;7291241;19;152650;-52
2021/11/25 10:00:08;;;;;;;;;;;;;;;21.39;37.58;101510.41;7284551;19;152848;-55
2021/11/25 10:02:35;;;;;;;;;;;;;;;21.39;37.50;101510.41;7283344;19;153358;-53
2021/11/25 10:05:02;;;;;;;;;;;;;;;21.35;37.64;101506.50;7282655;19;154413;-53
2021/11/25 10:07:30;;;;;;;;;;;;;;;21.35;37.87;101508.50;7282475;19;151975;-54
2021/11/25 10:09:57;;;;;;;;;;;;;;;21.33;37.50;101516.38;7285057;19;153266;-53
2021/11/25 10:12:36;;;;;;;;;;;;;;;21.30;37.70;101517.81;7280726;19;153119;-51
2021/11/25 10:15:22;;;;;;;;;;;;;;;21.28;37.66;101514.47;7284039;19;153188;-51
2021/11/25 10:17:50;;;;;;;;;;;;;;;21.27;37.87;101508.00;7284644;19;152033;-51
2021/11/25 10:20:19;;;;;;;;;;;;;;;21.28;37.72;101508.84;7289068;19;153903;-51
2021/11/25 10:23:01;;;;;;;;;;;;;;;21.31;37.55;101519.47;7284664;19;152670;-51
2021/11/25 10:25:48;;;;;;;;;;;;;;;21.35;37.65;101530.97;7282860;19;152659;-51
2021/11/25 10:28:44;;;;;;;;;;;;;;;21.38;37.75;101531.22;7284171;19;151547;-51
2021/11/25 10:31:24;;;;;;;;;;;;;;;21.43;37.59;101528.34;7283285;19;152532;-51
2021/11/25 10:33:59;;;;;;;;;;;;;;;21.46;37.61;101522.09;7276318;19;153857;-52
2021/11/25 10:37:17;;;;;;;;;;;;;;;21.48;37.58;101519.84;7280264;19;151921;-51
2021/11/25 10:42:07;;;;;;;;;;;;;;;21.49;37.71;101518.69;7289418;19;154059;-51
2021/11/25 10:44:36;;;;;;;;;;;;;;;21.51;37.92;101507.13;7274345;19;152807;-51
2021/11/25 10:47:05;;;;;;;;;;;;;;;21.51;37.52;101510.78;7281086;19;154401;-51
2021/11/25 10:49:32;;;;;;;;;;;;;;;21.50;37.85;101506.31;7283870;19;151912;-52
2021/11/25 10:52:01;;;;;;;;;;;;;;;21.51;37.80;101505.16;7283163;19;152149;-51
2021/11/25 10:54:27;;;;;;;;;;;;;;;21.50;37.68;101514.75;7282574;19;153757;-51
2021/11/25 10:56:55;;;;;;;;;;;;;;;21.50;37.45;101514.75;7280603;19;152664;-51
2021/11/25 10:59:34;;;;;;;;;;;;;;;21.50;37.58;101509.13;7283742;19;152748;-51
2021/11/25 11:02:01;;;;;;;;;;;;;;;21.49;37.23;101506.59;7281579;19;154593;-51
2021/11/25 11:04:29;;;;;;;;;;;;;;;21.47;37.13;101504.09;7286960;19;152276;-51
2021/11/25 11:06:56;;;;;;;;;;;;;;;21.47;37.14;101504.09;7280902;19;153261;-51
2021/11/25 11:09:30;;;;;;;;;;;;;;;21.48;37.67;101521.81;7281340;19;152058;-51
2021/11/25 11:12:22;;;;;;;;;;;;;;;21.46;37.22;101508.03;7284625;19;152804;-51
2021/11/25 11:14:53;;;;;;;;;;;;;;;21.44;37.65;101501.88;7278106;19;154086;-51
2021/11/25 11:17:44;;;;;;;;;;;;;;;21.44;37.22;101503.88;7287570;19;152242;-51
2021/11/25 11:20:18;;;;;;;;;;;;;;;21.42;37.69;101500.50;7288687;19;152259;-51
2021/11/25 11:22:53;;;;;;;;;;;;;;;21.44;37.68;101509.50;7288305;19;153489;-51
2021/11/25 11:25:22;;;;;;;;;;;;;;;21.47;37.56;101512.53;7288859;19;152323;-51
2021/11/25 11:27:50;;;;;;;;;;;;;;;21.51;37.85;101513.59;7294176;19;153747;-52
2021/11/25 11:30:17;;;;;;;;;;;;;;;21.55;37.41;101509.06;7289008;19;151957;-52
2021/11/25 11:32:44;;;;;;;;;;;;;;;21.58;37.67;101519.69;7286510;19;152906;-51
2021/11/25 11:35:12;;;;;;;;;;;;;;;21.61;37.78;101505.03;7286910;19;153918;-51
2021/11/25 11:37:39;;;;;;;;;;;;;;;21.64;37.58;101514.84;7288533;19;151982;-52
2021/11/25 11:40:07;;;;;;;;;;;;;;;21.66;37.52;101527.47;7286813;19;152513;-51
2021/11/25 11:42:50;;;;;;;;;;;;;;;21.66;37.70;101504.13;7287070;19;153182;-51
2021/11/25 11:45:17;;;;;;;;;;;;;;;21.67;37.69;101520.69;7285076;19;152004;-51
2021/11/25 11:47:44;;;;;;;;;;;;;;;21.67;37.63;101519.84;7283144;19;153504;-51
2021/11/25 11:50:12;;;;;;;;;;;;;;;21.68;37.60;101525.19;7293277;19;154695;-52
2021/11/25 11:52:56;;;;;;;;;;;;;;;21.68;37.28;101522.38;7288478;19;153316;-51
2021/11/25 11:55:26;;;;;;;;;;;;;;;21.69;37.21;101520.38;7286765;19;153333;-53
2021/11/25 11:57:53;;;;;;;;;;;;;;;21.67;37.25;101517.88;7288008;19;152165;-51
2021/11/25 12:00:20;;;;;;;;;;;;;;;21.69;37.57;101511.94;7288361;19;152615;-51
2021/11/25 12:02:49;;;;;;;;;;;;;;;21.67;37.53;101506.63;7284045;19;153277;-51
2021/11/25 12:05:35;;;;;;;;;;;;;;;21.67;37.29;101503.81;7287045;19;152042;-51
2021/11/25 12:08:20;;;;;;;;;;;;;;;21.66;37.39;101504.13;7284293;19;152596;-51
2021/11/25 12:10:56;;;;;;;;;;;;;;;21.65;37.29;101506.09;7286214;19;152399;-51
2021/11/25 12:13:26;;;;;;;;;;;;;;;21.67;37.40;101495.38;7295065;19;151938;-51
2021/11/25 12:16:32;;;;;;;;;;;;;;;21.67;37.61;101494.53;7286503;19;153965;-51
2021/11/25 12:19:00;;;;;;;;;;;;;;;21.70;37.45;101486.34;7283260;19;152024;-51
2021/11/25 12:21:36;;;;;;;;;;;;;;;21.75;37.62;101479.81;7283397;19;153558;-51
2021/11/25 12:24:11;;;;;;;;;;;;;;;21.77;37.49;101476.69;7283686;19;152517;-51
2021/11/25 12:26:57;;;;;;;;;;;;;;;21.80;37.30;101476.09;7286805;19;152078;-52
2021/11/25 12:29:44;;;;;;;;;;;;;;;21.82;37.52;101470.97;7285175;19;152887;-51
2021/11/25 12:32:47;;;;;;;;;;;;;;;21.83;37.39;101467.03;7286405;19;154588;-51
2021/11/25 12:35:14;;;;;;;;;;;;;;;21.83;37.39;101481.09;7286666;19;152319;-51
2021/11/25 12:37:41;;;;;;;;;;;;;;;21.85;37.27;101470.38;7293731;19;153573;-51
2021/11/25 12:40:27;;;;;;;;;;;;;;;21.86;37.42;101469.22;7287473;19;151885;-51
2021/11/25 12:42:56;;;;;;;;;;;;;;;21.86;36.93;101472.88;7284792;19;153294;-51
2021/11/25 12:45:31;;;;;;;;;;;;;;;21.86;36.99;101475.69;7281398;19;153237;-51
2021/11/25 12:48:09;;;;;;;;;;;;;;;21.86;37.11;101464.44;7283597;19;151971;-51